Time;durP1;ratioP1;P1;durP2;ratioP2;P2;SDS_P1;SDS_P2;PMS_P1;PMS_P2;Temp;Humidity;BMP_temperature;BMP_pressure;BME280_temperature;BME280_humidity;BME280_pressure;Samples;Min_cycle;Max_cycle;Signal;HPM_P1;HPM_P2
2022/09/27 14:33:41;;;;;;;1.05;0.38;;;11.40;99.90;;;;;;5107101;27;21011;-92
2022/09/27 14:39:36;;;;;;;1.35;0.52;;;12.70;99.90;;;;;;5087611;28;20058;-91
2022/09/27 14:42:05;;;;;;;1.95;0.40;;;12.60;99.90;;;;;;5068825;28;20056;-90
2022/09/27 14:44:32;;;;;;;0.98;0.40;;;12.50;99.90;;;;;;5070986;28;20075;-90
2022/09/27 14:47:21;;;;;;;1.45;0.30;;;12.40;99.90;;;;;;5072350;28;20024;-90
2022/09/27 14:49:53;;;;;;;0.65;0.20;;;12.30;99.90;;;;;;5070488;28;20470;-89
2022/09/27 14:52:27;;;;;;;1.05;0.57;;;12.20;99.90;;;;;;5072479;28;20512;-90
2022/09/27 14:55:14;;;;;;;0.32;0.20;;;12.20;99.90;;;;;;5069513;28;20116;-91
2022/09/27 14:57:46;;;;;;;0.30;0.20;;;12.20;99.90;;;;;;5071366;28;20030;-91
2022/09/27 15:00:25;;;;;;;1.48;0.40;;;12.10;99.90;;;;;;5076718;28;20044;-90
2022/09/27 15:02:54;;;;;;;1.35;0.20;;;12.00;99.90;;;;;;5072694;28;20037;-91
2022/09/27 15:05:23;;;;;;;0.28;0.15;;;11.90;99.90;;;;;;5070464;28;20024;-88
2022/09/27 15:07:50;;;;;;;0.57;0.20;;;11.80;99.90;;;;;;5074865;28;20478;-90
2022/09/27 15:10:20;;;;;;;0.75;0.20;;;11.80;99.90;;;;;;5089561;28;20401;-89
2022/09/27 15:12:50;;;;;;;0.30;0.25;;;11.80;99.90;;;;;;5088480;28;20036;-86
2022/09/27 15:15:21;;;;;;;0.60;0.32;;;11.70;99.90;;;;;;5088187;28;20017;-86
2022/09/27 15:17:47;;;;;;;0.80;0.20;;;11.70;99.90;;;;;;5079733;28;20017;-87
2022/09/27 15:20:26;;;;;;;0.80;0.28;;;11.60;99.90;;;;;;5050266;28;20044;-89
2022/09/27 15:22:54;;;;;;;0.28;0.20;;;11.60;99.90;;;;;;5068485;28;20031;-87
2022/09/27 15:25:31;;;;;;;0.50;0.28;;;11.60;99.90;;;;;;5067219;28;20147;-87
2022/09/27 15:27:58;;;;;;;0.65;0.32;;;11.60;99.90;;;;;;5070135;28;20062;-90
2022/09/27 15:30:27;;;;;;;0.77;0.30;;;11.50;99.90;;;;;;5069042;28;20064;-89
2022/09/27 15:32:55;;;;;;;1.52;0.30;;;11.50;99.90;;;;;;5081953;28;20057;-88
2022/09/27 15:35:27;;;;;;;1.83;0.40;;;11.50;99.90;;;;;;5055056;28;20088;-89
2022/09/27 15:38:28;;;;;;;1.77;0.67;;;11.50;99.90;;;;;;5056303;28;20086;-89
2022/09/27 15:40:53;;;;;;;0.52;0.32;;;11.50;99.90;;;;;;5058382;28;20268;-91
2022/09/27 15:43:29;;;;;;;0.75;0.40;;;11.50;99.90;;;;;;5065519;28;20079;-92
2022/09/27 15:46:02;;;;;;;0.75;0.35;;;11.40;99.90;;;;;;5062501;28;20056;-91
2022/09/27 15:48:34;;;;;;;1.70;0.40;;;11.40;99.90;;;;;;5069384;28;20017;-91
2022/09/27 15:51:00;;;;;;;0.73;0.35;;;11.30;99.90;;;;;;5058261;28;20533;-89
2022/09/27 15:53:32;;;;;;;0.57;0.40;;;11.30;99.90;;;;;;5065556;28;20113;-90
2022/09/27 15:55:58;;;;;;;0.82;0.40;;;11.40;99.90;;;;;;5060226;28;20041;-90
2022/09/27 15:58:24;;;;;;;0.40;0.30;;;11.40;99.90;;;;;;5053388;28;20067;-87
2022/09/27 16:00:52;;;;;;;1.02;0.50;;;11.40;99.90;;;;;;5055038;28;20505;-89
2022/09/27 16:03:17;;;;;;;1.23;0.60;;;11.40;99.90;;;;;;5055678;28;20032;-89
2022/09/27 16:05:43;;;;;;;1.13;0.57;;;11.30;99.90;;;;;;5066036;28;20029;-88
2022/09/27 16:08:10;;;;;;;1.10;0.70;;;11.30;99.90;;;;;;5053370;28;20429;-87
2022/09/27 16:10:38;;;;;;;1.00;0.60;;;11.30;99.90;;;;;;5053746;28;20516;-90
2022/09/27 16:13:03;;;;;;;1.17;0.57;;;11.40;99.90;;;;;;5059377;28;20375;-87
2022/09/27 16:15:29;;;;;;;1.33;0.65;;;11.30;99.90;;;;;;5057836;28;20032;-87
2022/09/27 16:17:56;;;;;;;1.45;0.65;;;11.30;99.90;;;;;;5053896;28;20753;-88
2022/09/27 16:20:26;;;;;;;0.85;0.57;;;11.30;99.90;;;;;;5053217;28;20348;-88
2022/09/27 16:22:56;;;;;;;1.42;0.70;;;11.30;99.90;;;;;;5054555;28;20079;-90
2022/09/27 16:25:22;;;;;;;1.38;0.60;;;11.30;99.90;;;;;;5049587;28;20021;-90
2022/09/27 16:27:49;;;;;;;1.33;0.68;;;11.30;99.90;;;;;;5053847;28;20020;-91
2022/09/27 16:30:15;;;;;;;0.90;0.60;;;11.30;99.90;;;;;;5053676;28;20017;-89
2022/09/27 16:32:46;;;;;;;2.05;0.93;;;11.20;99.90;;;;;;5052199;28;20045;-88
2022/09/27 16:35:13;;;;;;;2.33;1.10;;;11.20;99.90;;;;;;5052250;28;20078;-87
2022/09/27 16:37:41;;;;;;;2.20;1.20;;;11.20;99.90;;;;;;5053610;28;20017;-93
2022/09/27 16:40:08;;;;;;;2.20;1.10;;;11.20;99.90;;;;;;5053983;28;20033;-91
2022/09/27 16:42:34;;;;;;;3.40;1.35;;;11.10;99.90;;;;;;5057794;28;20041;-88
2022/09/27 16:45:00;;;;;;;1.55;1.05;;;11.10;99.90;;;;;;5064342;28;20032;-89
2022/09/27 16:47:27;;;;;;;2.95;1.23;;;11.10;99.90;;;;;;5051686;28;20025;-88
2022/09/27 16:52:38;;;;;;;1.95;1.05;;;11.00;99.90;;;;;;5058456;28;20063;-90
2022/09/27 16:55:06;;;;;;;2.28;1.00;;;10.90;99.90;;;;;;5061080;28;20537;-89
2022/09/27 16:57:33;;;;;;;2.65;0.98;;;10.90;99.90;;;;;;5059480;28;20111;-87
2022/09/27 17:00:02;;;;;;;2.70;0.88;;;10.90;99.90;;;;;;5051271;28;20012;-88
2022/09/27 17:02:27;;;;;;;2.47;1.00;;;10.90;99.90;;;;;;5051747;28;20025;-89
2022/09/27 17:04:53;;;;;;;2.72;0.77;;;10.80;99.90;;;;;;5052380;28;20047;-90
2022/09/27 17:07:20;;;;;;;4.53;0.90;;;10.70;99.90;;;;;;5052423;28;20025;-89
2022/09/27 17:09:46;;;;;;;2.08;0.80;;;10.60;99.90;;;;;;5053037;28;20089;-88
2022/09/27 17:12:12;;;;;;;2.92;0.77;;;10.50;99.90;;;;;;5072900;28;20076;-88
2022/09/27 17:14:38;;;;;;;1.48;0.50;;;10.40;99.90;;;;;;5072595;28;20013;-90
2022/09/27 17:20:28;;;;;;;1.85;0.60;;;10.30;99.90;;;;;;5086136;28;20080;-92
2022/09/27 17:22:53;;;;;;;2.60;0.65;;;10.20;99.90;;;;;;5084531;28;20035;-88
2022/09/27 17:25:19;;;;;;;2.38;0.55;;;10.20;99.90;;;;;;5081564;28;20025;-88
2022/09/27 17:27:45;;;;;;;1.38;0.60;;;10.20;99.90;;;;;;5081005;28;20033;-90
2022/09/27 17:30:11;;;;;;;1.60;0.50;;;10.10;99.90;;;;;;5091912;28;20020;-90
2022/09/27 17:32:38;;;;;;;1.63;0.73;;;10.10;99.90;;;;;;5076076;28;20053;-89
2022/09/27 17:35:04;;;;;;;2.22;0.60;;;10.10;99.90;;;;;;5073696;28;20025;-88
2022/09/27 17:37:31;;;;;;;1.65;0.43;;;10.10;99.90;;;;;;5069459;28;20051;-90
2022/09/27 17:39:56;;;;;;;2.33;0.60;;;10.10;99.90;;;;;;5066754;28;20009;-90
2022/09/27 17:42:23;;;;;;;1.45;0.40;;;10.00;99.90;;;;;;5073294;28;20047;-91
2022/09/27 17:44:49;;;;;;;1.35;0.68;;;10.00;99.90;;;;;;5066421;28;20040;-89
2022/09/27 17:52:44;;;;;;;2.42;0.70;;;10.00;99.90;;;;;;5058111;28;20146;-92
2022/09/27 17:55:09;;;;;;;1.65;0.68;;;10.00;99.90;;;;;;5051681;28;20163;-88
2022/09/27 17:57:35;;;;;;;1.05;0.60;;;10.00;99.90;;;;;;5058989;28;20025;-90
2022/09/27 18:00:01;;;;;;;1.27;0.60;;;10.00;99.90;;;;;;5070645;28;20386;-90
2022/09/27 18:02:26;;;;;;;1.48;0.68;;;9.90;99.90;;;;;;5044615;28;20037;-89
2022/09/27 18:04:52;;;;;;;1.63;0.55;;;10.00;99.90;;;;;;5047152;28;20021;-89
2022/09/27 18:07:18;;;;;;;2.38;0.68;;;10.00;99.90;;;;;;5050019;28;20021;-89
2022/09/27 18:09:44;;;;;;;2.05;0.55;;;10.00;99.90;;;;;;5050550;28;20533;-91
2022/09/27 18:12:12;;;;;;;1.45;0.60;;;9.90;99.90;;;;;;5050792;28;20116;-89
2022/09/27 18:14:38;;;;;;;1.48;0.75;;;9.90;99.90;;;;;;5048828;28;20075;-90
2022/09/27 18:17:03;;;;;;;1.13;0.60;;;9.90;99.90;;;;;;5052447;28;20041;-90
2022/09/27 18:19:29;;;;;;;1.75;0.70;;;9.90;99.90;;;;;;5041999;28;20100;-93
2022/09/27 18:21:55;;;;;;;0.98;0.65;;;9.90;99.90;;;;;;5051962;28;20121;-91
2022/09/27 18:24:20;;;;;;;1.33;0.52;;;9.90;99.90;;;;;;5059525;28;20029;-88
2022/09/27 18:26:47;;;;;;;0.95;0.50;;;9.90;99.90;;;;;;5059163;28;20022;-88
2022/09/27 18:29:16;;;;;;;2.22;0.50;;;9.90;99.90;;;;;;5058530;28;20033;-91
2022/09/27 18:31:42;;;;;;;1.70;0.70;;;9.90;99.90;;;;;;5052181;28;20140;-90
2022/09/27 18:34:09;;;;;;;1.48;0.50;;;9.90;99.90;;;;;;5049629;28;20075;-93
2022/09/27 18:36:36;;;;;;;0.88;0.60;;;9.90;99.90;;;;;;5050061;28;20440;-90
2022/09/27 18:39:05;;;;;;;2.28;0.90;;;9.90;99.90;;;;;;5050510;28;20025;-92
2022/09/27 18:41:33;;;;;;;1.98;0.70;;;10.00;99.90;;;;;;5048927;28;20025;-90
2022/09/27 18:44:01;;;;;;;1.70;0.90;;;9.90;99.90;;;;;;5049840;28;20478;-88
2022/09/27 18:46:29;;;;;;;2.95;0.90;;;9.90;99.90;;;;;;5051115;28;20489;-91
2022/09/27 18:48:55;;;;;;;1.95;0.90;;;9.90;99.90;;;;;;5049786;28;20029;-90
2022/09/27 18:51:25;;;;;;;2.13;0.82;;;9.90;99.90;;;;;;5050710;28;20086;-90
2022/09/27 18:53:59;;;;;;;2.05;0.65;;;9.90;99.90;;;;;;5050391;28;20013;-90
2022/09/27 18:56:26;;;;;;;2.05;0.90;;;9.90;99.90;;;;;;5050049;28;20183;-89
2022/09/27 18:58:53;;;;;;;2.35;0.80;;;9.90;99.90;;;;;;5050754;28;20100;-91
2022/09/27 19:01:20;;;;;;;1.92;0.80;;;9.90;99.90;;;;;;5050450;28;20037;-90
2022/09/27 19:03:46;;;;;;;2.90;0.70;;;9.90;99.90;;;;;;5049534;28;20017;-89
2022/09/27 19:06:21;;;;;;;2.22;0.80;;;9.90;99.90;;;;;;5039313;28;20052;-89
2022/09/27 19:08:54;;;;;;;1.85;0.98;;;9.90;99.90;;;;;;5048784;28;20029;-90
2022/09/27 19:11:19;;;;;;;1.52;0.70;;;9.90;99.90;;;;;;5055135;28;20172;-90
2022/09/27 19:13:50;;;;;;;0.98;0.60;;;9.90;99.90;;;;;;5054355;28;20120;-88
2022/09/27 19:16:16;;;;;;;2.38;0.88;;;9.90;99.90;;;;;;5049563;28;20029;-90
2022/09/27 19:18:42;;;;;;;1.10;0.70;;;9.80;99.90;;;;;;5055436;28;20090;-90
2022/09/27 19:21:13;;;;;;;1.75;0.80;;;9.80;99.90;;;;;;5053803;28;20033;-88
2022/09/27 19:23:40;;;;;;;0.88;0.60;;;9.80;99.90;;;;;;5063957;28;20032;-88
2022/09/27 19:26:12;;;;;;;2.30;0.85;;;9.80;99.90;;;;;;5070869;28;20024;-93
2022/09/27 19:28:42;;;;;;;1.38;0.80;;;9.80;99.90;;;;;;5058816;28;20025;-90
2022/09/27 19:31:19;;;;;;;1.52;0.90;;;9.70;99.90;;;;;;5066925;28;20089;-90
2022/09/27 19:33:44;;;;;;;2.70;0.80;;;9.70;99.90;;;;;;5068941;28;20048;-87
2022/09/27 19:36:12;;;;;;;1.92;0.90;;;9.70;99.90;;;;;;5070317;28;20044;-90
2022/09/27 19:38:39;;;;;;;1.00;0.82;;;9.70;99.90;;;;;;5072863;28;20080;-91
2022/09/27 19:41:08;;;;;;;1.02;0.70;;;9.60;99.90;;;;;;5070822;28;20024;-90
2022/09/27 19:43:35;;;;;;;2.30;0.90;;;9.60;99.90;;;;;;5071353;28;20642;-89
2022/09/27 19:46:09;;;;;;;1.02;0.73;;;9.60;99.90;;;;;;5063828;28;20145;-89
2022/09/27 19:48:37;;;;;;;2.10;0.90;;;9.70;99.90;;;;;;5069218;28;20493;-91
2022/09/27 19:51:03;;;;;;;1.10;0.90;;;9.60;99.90;;;;;;5063818;28;20051;-91
2022/09/27 19:53:31;;;;;;;3.28;1.20;;;9.60;99.90;;;;;;5064829;28;20105;-91
2022/09/27 19:56:02;;;;;;;2.47;1.15;;;9.60;99.90;;;;;;5054378;28;20021;-87
2022/09/27 19:58:29;;;;;;;3.28;1.40;;;9.60;99.90;;;;;;5063937;28;20024;-87
2022/09/27 20:01:23;;;;;;;4.18;1.50;;;9.60;99.90;;;;;;5057835;28;20025;-90
2022/09/27 20:03:55;;;;;;;2.15;1.30;;;9.60;99.90;;;;;;5041924;28;20120;-90
2022/09/27 20:06:21;;;;;;;2.50;1.38;;;9.60;99.90;;;;;;5054986;28;20029;-87
2022/09/27 20:08:50;;;;;;;2.42;1.27;;;9.50;99.90;;;;;;5057747;28;20029;-91
2022/09/27 20:11:22;;;;;;;2.28;1.38;;;9.50;99.90;;;;;;5057061;28;20043;-89
2022/09/27 20:13:50;;;;;;;3.15;1.73;;;9.50;99.90;;;;;;5063971;28;20043;-89
2022/09/27 20:16:24;;;;;;;2.65;1.98;;;9.50;99.90;;;;;;5057932;28;20017;-86
2022/09/27 20:18:52;;;;;;;2.63;1.75;;;9.50;99.90;;;;;;5058639;28;20024;-91
2022/09/27 20:21:20;;;;;;;3.80;1.90;;;9.50;99.90;;;;;;5057644;28;20029;-91
2022/09/27 20:23:51;;;;;;;3.20;2.00;;;9.50;99.90;;;;;;5055258;28;20088;-89
2022/09/27 20:26:19;;;;;;;2.65;1.80;;;9.50;99.90;;;;;;5055096;28;20029;-88
2022/09/27 20:28:50;;;;;;;2.67;1.70;;;9.50;99.90;;;;;;5057497;28;20060;-88
2022/09/27 20:31:22;;;;;;;5.65;2.50;;;9.60;99.90;;;;;;5052365;28;20033;-88
2022/09/27 20:33:49;;;;;;;3.35;2.40;;;9.60;99.90;;;;;;5042580;28;20079;-88
2022/09/27 20:36:21;;;;;;;4.28;3.30;;;9.60;99.90;;;;;;5056743;28;20020;-86
2022/09/27 20:38:53;;;;;;;5.03;2.95;;;9.60;99.90;;;;;;5053649;28;20017;-90
2022/09/27 20:41:21;;;;;;;4.30;2.80;;;9.50;99.90;;;;;;5051494;28;20120;-88
2022/09/27 20:43:51;;;;;;;3.97;2.50;;;9.50;99.90;;;;;;5053133;28;20653;-89
2022/09/27 20:46:18;;;;;;;4.30;2.97;;;9.50;99.90;;;;;;5056051;28;20035;-89
2022/09/27 20:48:48;;;;;;;3.90;3.33;;;9.50;99.90;;;;;;5049879;28;20133;-90
2022/09/27 20:51:14;;;;;;;4.95;3.13;;;9.60;99.90;;;;;;5051888;28;20040;-89
2022/09/27 20:53:41;;;;;;;6.18;4.03;;;9.60;99.90;;;;;;5054952;28;20021;-91
2022/09/27 20:56:18;;;;;;;5.70;4.43;;;9.60;99.90;;;;;;5063217;28;20029;-90
2022/09/27 20:58:45;;;;;;;4.82;3.90;;;9.70;99.90;;;;;;5060888;28;20029;-87
2022/09/27 21:01:12;;;;;;;4.93;4.25;;;9.70;99.90;;;;;;5055420;28;20024;-89
2022/09/27 21:03:38;;;;;;;6.95;5.55;;;9.70;99.90;;;;;;5061540;28;20632;-89
2022/09/27 21:06:04;;;;;;;7.80;6.70;;;9.70;99.90;;;;;;5062030;28;20058;-91
2022/09/27 21:08:34;;;;;;;8.70;5.75;;;9.60;99.90;;;;;;5058682;28;20036;-87
2022/09/27 21:11:11;;;;;;;7.78;6.22;;;9.70;99.90;;;;;;5056165;28;20089;-87
2022/09/27 21:13:40;;;;;;;8.13;5.40;;;9.70;99.90;;;;;;5050990;28;20072;-89
2022/09/27 21:16:08;;;;;;;7.82;6.05;;;9.70;99.90;;;;;;5056184;28;20039;-90
2022/09/27 21:18:35;;;;;;;8.68;5.50;;;9.60;99.90;;;;;;5049693;28;20120;-89
2022/09/27 21:21:10;;;;;;;7.93;5.40;;;9.60;99.90;;;;;;5049962;28;20210;-89
2022/09/27 21:23:37;;;;;;;7.78;5.68;;;9.60;99.90;;;;;;5063217;28;20057;-88
2022/09/27 21:26:08;;;;;;;6.82;5.53;;;9.60;99.90;;;;;;5056308;28;20379;-92
2022/09/27 21:28:48;;;;;;;6.95;4.97;;;9.60;99.90;;;;;;5057292;28;20122;-89
2022/09/27 21:31:22;;;;;;;6.57;5.80;;;9.60;99.90;;;;;;5052854;28;20025;-91
2022/09/27 21:33:54;;;;;;;5.85;4.78;;;9.60;99.90;;;;;;5050637;28;20048;-90
2022/09/27 21:36:21;;;;;;;6.72;5.55;;;9.50;99.90;;;;;;5053714;28;20021;-89
2022/09/27 21:38:47;;;;;;;6.22;4.53;;;9.50;99.90;;;;;;5054248;28;20177;-88
2022/09/27 21:41:14;;;;;;;7.32;5.10;;;9.50;99.90;;;;;;5053062;28;20464;-91
2022/09/27 21:43:41;;;;;;;6.38;5.35;;;9.50;99.90;;;;;;5051683;28;20231;-90
2022/09/27 21:46:15;;;;;;;6.60;5.22;;;9.50;99.90;;;;;;5045215;28;20021;-89
2022/09/27 21:48:44;;;;;;;7.88;5.40;;;9.50;99.90;;;;;;5049860;28;20032;-91
2022/09/27 21:51:12;;;;;;;4.80;4.03;;;9.50;99.90;;;;;;5047496;28;20013;-89
2022/09/27 21:53:41;;;;;;;7.63;5.38;;;9.50;99.90;;;;;;5055144;28;20051;-91
2022/09/27 21:56:08;;;;;;;7.18;5.45;;;9.50;99.90;;;;;;5053260;28;20033;-87
2022/09/27 21:58:36;;;;;;;7.93;5.15;;;9.50;99.90;;;;;;5060043;28;20071;-92
2022/09/27 22:01:10;;;;;;;6.72;4.80;;;9.50;99.90;;;;;;5055680;28;20151;-89
2022/09/27 22:03:37;;;;;;;6.07;4.75;;;9.50;99.90;;;;;;5050287;28;20039;-88
2022/09/27 22:06:04;;;;;;;6.03;4.80;;;9.40;99.90;;;;;;5052471;28;20599;-88
2022/09/27 22:08:31;;;;;;;5.82;5.07;;;9.40;99.90;;;;;;5056734;28;20021;-89
2022/09/27 22:10:56;;;;;;;6.57;4.72;;;9.40;99.90;;;;;;5058832;28;20027;-89
2022/09/27 22:13:22;;;;;;;6.78;5.32;;;9.40;99.90;;;;;;5052347;28;20025;-88
2022/09/27 22:15:49;;;;;;;7.25;4.75;;;9.40;99.90;;;;;;5063184;28;20021;-87
2022/09/27 22:18:15;;;;;;;6.43;5.18;;;9.30;99.90;;;;;;5057790;28;20458;-90
2022/09/27 22:20:42;;;;;;;6.03;5.00;;;9.20;99.90;;;;;;5059484;28;20375;-90
2022/09/27 22:23:07;;;;;;;5.20;4.43;;;9.10;99.90;;;;;;5059218;28;20033;-89
2022/09/27 22:25:33;;;;;;;6.13;4.45;;;9.10;99.90;;;;;;5070949;28;20083;-90
2022/09/27 22:27:59;;;;;;;5.90;4.25;;;9.00;99.90;;;;;;5060458;28;20015;-88
2022/09/27 22:30:25;;;;;;;4.85;3.75;;;9.00;99.90;;;;;;5064986;28;20029;-89
2022/09/27 22:32:51;;;;;;;5.70;4.30;;;9.00;99.90;;;;;;5060470;28;20131;-88
2022/09/27 22:35:17;;;;;;;5.95;4.13;;;9.00;99.90;;;;;;5061116;28;20037;-88
2022/09/27 22:37:44;;;;;;;4.68;3.83;;;8.90;99.90;;;;;;5055592;28;20108;-91
2022/09/27 22:40:10;;;;;;;5.53;4.22;;;8.90;99.90;;;;;;5058002;28;20471;-91
2022/09/27 22:42:36;;;;;;;6.00;4.55;;;8.90;99.90;;;;;;5055766;28;20017;-90
2022/09/27 22:45:03;;;;;;;4.53;3.85;;;8.90;99.90;;;;;;5056544;28;20052;-90
2022/09/27 22:47:28;;;;;;;5.90;4.20;;;8.90;99.90;;;;;;5056754;28;20029;-88
2022/09/27 22:49:57;;;;;;;4.88;3.75;;;9.00;99.90;;;;;;5056388;28;20025;-90
2022/09/27 22:52:23;;;;;;;5.97;4.35;;;9.00;99.90;;;;;;5049383;28;20079;-91
2022/09/27 22:54:49;;;;;;;5.32;3.72;;;9.00;99.90;;;;;;5056277;28;20378;-90
2022/09/27 22:57:15;;;;;;;5.68;4.32;;;9.10;99.90;;;;;;5061145;28;20025;-89
2022/09/27 22:59:40;;;;;;;4.53;3.70;;;9.10;99.90;;;;;;5057589;28;20024;-91
2022/09/27 23:02:06;;;;;;;7.95;5.10;;;9.10;99.90;;;;;;5056161;28;20035;-89
2022/09/27 23:04:31;;;;;;;6.63;4.82;;;9.10;99.90;;;;;;5055826;28;20025;-90
2022/09/27 23:06:57;;;;;;;6.25;4.65;;;9.10;99.90;;;;;;5055885;28;20060;-89
2022/09/27 23:09:23;;;;;;;6.50;5.05;;;9.10;99.90;;;;;;5055372;28;20025;-90
2022/09/27 23:11:49;;;;;;;6.18;5.05;;;9.10;99.90;;;;;;5048518;28;20114;-88
2022/09/27 23:14:15;;;;;;;6.35;4.57;;;9.10;99.90;;;;;;5056541;28;20029;-89
2022/09/27 23:16:40;;;;;;;5.13;3.95;;;9.20;99.90;;;;;;5056699;28;20434;-89
2022/09/27 23:19:07;;;;;;;5.65;4.45;;;9.10;99.90;;;;;;5058686;28;20466;-89
2022/09/27 23:21:34;;;;;;;6.43;4.55;;;9.20;99.90;;;;;;5059772;28;20360;-90
2022/09/27 23:24:00;;;;;;;6.30;4.60;;;9.20;99.90;;;;;;5048192;28;20024;-88
2022/09/27 23:26:27;;;;;;;6.03;4.95;;;9.20;99.90;;;;;;5056129;28;20025;-89
2022/09/27 23:28:54;;;;;;;6.70;5.43;;;9.20;99.90;;;;;;5055549;28;20112;-89
2022/09/27 23:31:22;;;;;;;6.30;4.82;;;9.30;99.90;;;;;;5056394;28;20036;-88
2022/09/27 23:33:49;;;;;;;5.35;4.47;;;9.20;99.90;;;;;;5054743;28;20445;-89
2022/09/27 23:36:22;;;;;;;6.35;4.50;;;9.20;99.90;;;;;;5055107;28;20021;-88
2022/09/27 23:38:50;;;;;;;5.45;4.60;;;9.20;99.90;;;;;;5058396;28;20113;-89
2022/09/27 23:41:17;;;;;;;6.18;4.75;;;9.20;99.90;;;;;;5055945;28;20520;-88
2022/09/27 23:43:43;;;;;;;6.88;4.70;;;9.20;99.90;;;;;;5072195;28;20486;-87
2022/09/27 23:46:09;;;;;;;5.65;4.03;;;9.10;99.90;;;;;;5055629;28;20017;-88
2022/09/27 23:48:35;;;;;;;6.63;4.90;;;9.10;99.90;;;;;;5054469;28;20154;-89
2022/09/27 23:51:02;;;;;;;7.43;4.80;;;9.10;99.90;;;;;;5055058;28;20061;-88
2022/09/27 23:53:30;;;;;;;7.28;4.82;;;9.10;99.90;;;;;;5054972;28;20065;-88
2022/09/27 23:56:01;;;;;;;6.53;4.88;;;9.00;99.90;;;;;;5045390;28;20060;-89
2022/09/27 23:58:28;;;;;;;7.60;6.18;;;9.00;99.90;;;;;;5055164;28;20029;-89
